Time,TemperatureF,DewpointF,PressureIn,WindDirection,WindDirectionDegrees,WindSpeedMPH,WindSpeedGustMPH,Humidity,HourlyPrecipIn,Conditions,Clouds,dailyrainin,SoftwareType,DateUTC
2013-02-22 00:00:00,17.5,15.1,30.03,West,262,2.0,8.0,90,0.00,,---,0.00,VWS V14.01,2013-02-22 06:00:00,
2013-02-22 00:05:00,16.7,14.3,30.03,WSW,256,1.0,6.0,90,0.00,,---,0.00,VWS V14.01,2013-02-22 06:05:00,
2013-02-22 00:10:00,16.2,14.0,30.03,WSW,248,0.0,6.0,91,0.00,,---,0.00,VWS V14.01,2013-02-22 06:10:00,
2013-02-22 00:15:00,16.0,13.8,30.03,SW,228,0.0,6.0,91,0.00,,---,0.00,VWS V14.01,2013-02-22 06:15:00,
2013-02-22 00:20:00,16.0,14.1,30.03,NNW,332,2.0,4.0,92,0.00,,---,0.00,VWS V14.01,2013-02-22 06:20:00,
2013-02-22 00:25:00,15.8,13.9,30.04,West,262,2.0,6.0,92,0.00,,---,0.00,VWS V14.01,2013-02-22 06:25:00,
2013-02-22 00:30:00,15.7,13.8,30.04,West,281,0.0,6.0,92,0.00,,---,0.00,VWS V14.01,2013-02-22 06:30:00,
2013-02-22 00:35:00,15.9,14.0,30.04,WNW,300,0.0,1.0,92,0.00,,---,0.00,VWS V14.01,2013-02-22 06:35:00,
2013-02-22 00:40:00,16.3,14.6,30.04,West,267,0.0,1.0,93,0.00,,---,0.00,VWS V14.01,2013-02-22 06:40:00,
2013-02-22 00:45:00,16.6,14.9,30.05,West,281,0.0,1.0,93,0.00,,---,0.00,VWS V14.01,2013-02-22 06:45:00,
2013-02-22 00:50:00,16.9,15.2,30.05,West,271,2.0,3.0,93,0.00,,---,0.00,VWS V14.01,2013-02-22 06:50:00,
2013-02-22 00:55:00,17.1,15.4,30.05,NW,309,1.0,6.0,93,0.00,,---,0.00,VWS V14.01,2013-02-22 06:55:00,
2013-02-22 01:00:00,17.2,15.3,30.05,WSW,250,4.0,6.0,92,0.00,,---,0.00,VWS V14.01,2013-02-22 07:00:00,
2013-02-22 01:05:00,17.1,15.2,30.05,SW,233,2.0,6.0,92,0.00,,---,0.00,VWS V14.01,2013-02-22 07:05:00,
2013-02-22 01:10:00,17.0,15.1,30.06,WNW,300,2.0,6.0,92,0.00,,---,0.00,VWS V14.01,2013-02-22 07:10:00,
2013-02-22 01:15:00,16.7,14.5,30.06,West,278,0.0,6.0,91,0.00,,---,0.00,VWS V14.01,2013-02-22 07:15:00,
2013-02-22 01:20:00,16.3,14.1,30.06,WNW,301,1.0,5.0,91,0.00,,---,0.00,VWS V14.01,2013-02-22 07:20:00,
2013-02-22 01:25:00,15.9,13.7,30.06,SW,215,3.0,5.0,91,0.00,,---,0.00,VWS V14.01,2013-02-22 07:25:00,
2013-02-22 01:30:00,15.7,13.5,30.06,NW,308,3.0,5.0,91,0.00,,---,0.00,VWS V14.01,2013-02-22 07:30:00,
2013-02-22 01:35:00,15.4,13.2,30.06,SW,231,4.0,4.0,91,0.00,,---,0.00,VWS V14.01,2013-02-22 07:35:00,
2013-02-22 01:40:00,15.1,12.9,30.06,West,274,1.0,5.0,91,0.00,,---,0.00,VWS V14.01,2013-02-22 07:40:00,
2013-02-22 01:45:00,14.9,12.8,30.06,West,277,1.0,5.0,91,0.00,,---,0.00,VWS V14.01,2013-02-22 07:45:00,
2013-02-22 01:50:00,14.7,12.6,30.06,NNW,329,0.0,3.0,91,0.00,,---,0.00,VWS V14.01,2013-02-22 07:50:00,
2013-02-22 01:55:00,14.6,12.5,30.06,NW,318,5.0,6.0,91,0.00,,---,0.00,VWS V14.01,2013-02-22 07:55:00,
2013-02-22 02:00:00,14.6,12.5,30.06,NNW,329,4.0,7.0,91,0.00,,---,0.00,VWS V14.01,2013-02-22 08:00:00,
2013-02-22 02:05:00,14.6,12.5,30.06,NW,314,3.0,8.0,91,0.00,,---,0.00,VWS V14.01,2013-02-22 08:05:00,
2013-02-22 02:10:00,14.4,12.3,30.06,West,278,3.0,8.0,91,0.00,,---,0.00,VWS V14.01,2013-02-22 08:10:00,
2013-02-22 02:15:00,14.2,12.1,30.06,WNW,301,5.0,8.0,91,0.00,,---,0.00,VWS V14.01,2013-02-22 08:15:00,
2013-02-22 02:20:00,14.1,12.0,30.06,NW,309,2.0,6.0,91,0.00,,---,0.00,VWS V14.01,2013-02-22 08:20:00,
2013-02-22 02:25:00,14.0,11.9,30.05,NW,309,6.0,7.0,91,0.00,,---,0.00,VWS V14.01,2013-02-22 08:25:00,
2013-02-22 02:30:00,14.1,12.0,30.05,NW,309,8.0,10.0,91,0.00,,---,0.00,VWS V14.01,2013-02-22 08:30:00,
2013-02-22 02:35:00,14.4,12.3,30.05,WNW,291,5.0,11.0,91,0.00,,---,0.00,VWS V14.01,2013-02-22 08:35:00,
2013-02-22 02:40:00,14.5,12.4,30.06,NW,314,6.0,11.0,91,0.00,,---,0.00,VWS V14.01,2013-02-22 08:40:00,
2013-02-22 02:45:00,14.5,12.4,30.06,WNW,288,4.0,12.0,91,0.00,,---,0.00,VWS V14.01,2013-02-22 08:45:00,
2013-02-22 02:50:00,14.5,12.4,30.07,West,271,3.0,7.0,91,0.00,,---,0.00,VWS V14.01,2013-02-22 08:50:00,
2013-02-22 02:55:00,14.4,12.3,30.08,WNW,298,2.0,7.0,91,0.00,,---,0.00,VWS V14.01,2013-02-22 08:55:00,
2013-02-22 03:00:00,14.0,11.6,30.08,WSW,255,5.0,7.0,90,0.00,,---,0.00,VWS V14.01,2013-02-22 09:00:00,
2013-02-22 03:05:00,13.5,11.1,30.09,SW,229,6.0,8.0,90,0.00,,---,0.00,VWS V14.01,2013-02-22 09:05:00,
2013-02-22 03:09:00,13.1,10.7,30.09,West,264,5.0,8.0,90,0.00,,---,0.00,VWS V14.01,2013-02-22 09:09:00,
2013-02-22 03:14:00,12.9,10.5,30.09,WSW,239,4.0,8.0,90,0.00,,---,0.00,VWS V14.01,2013-02-22 09:14:00,
2013-02-22 03:19:00,12.8,10.4,30.09,WSW,252,4.0,8.0,90,0.00,,---,0.00,VWS V14.01,2013-02-22 09:19:00,
2013-02-22 03:24:00,12.9,10.5,30.09,West,266,5.0,9.0,90,0.00,,---,0.00,VWS V14.01,2013-02-22 09:24:00,
2013-02-22 03:29:00,12.9,10.5,30.10,West,263,9.0,9.0,90,0.00,,---,0.00,VWS V14.01,2013-02-22 09:29:00,
2013-02-22 03:34:00,12.9,10.5,30.10,West,278,3.0,8.0,90,0.00,,---,0.00,VWS V14.01,2013-02-22 09:34:00,
2013-02-22 03:39:00,12.7,10.3,30.10,WSW,243,7.0,10.0,90,0.00,,---,0.00,VWS V14.01,2013-02-22 09:39:00,
2013-02-22 03:44:00,12.5,10.1,30.11,West,276,3.0,12.0,90,0.00,,---,0.00,VWS V14.01,2013-02-22 09:44:00,
2013-02-22 03:49:00,12.4,10.0,30.10,WSW,255,6.0,8.0,90,0.00,,---,0.00,VWS V14.01,2013-02-22 09:49:00,
2013-02-22 03:54:00,12.4,10.0,30.10,WSW,243,3.0,8.0,90,0.00,,---,0.00,VWS V14.01,2013-02-22 09:54:00,
2013-02-22 03:59:00,12.5,10.4,30.10,SW,225,3.0,8.0,91,0.00,,---,0.00,VWS V14.01,2013-02-22 09:59:00,
2013-02-22 04:04:00,12.5,10.1,30.10,SW,228,3.0,6.0,90,0.00,,---,0.00,VWS V14.01,2013-02-22 10:04:00,
2013-02-22 04:09:00,12.7,10.6,30.10,SW,233,4.0,7.0,91,0.00,,---,0.00,VWS V14.01,2013-02-22 10:09:00,
2013-02-22 04:14:00,13.2,11.3,30.10,NW,307,6.0,8.0,92,0.00,,---,0.00,VWS V14.01,2013-02-22 10:14:00,
2013-02-22 04:19:00,13.5,11.4,30.10,West,271,3.0,10.0,91,0.00,,---,0.00,VWS V14.01,2013-02-22 10:19:00,
2013-02-22 04:24:00,13.5,11.4,30.10,WNW,287,9.0,10.0,91,0.00,,---,0.00,VWS V14.01,2013-02-22 10:24:00,
2013-02-22 04:29:00,13.6,11.2,30.10,WNW,290,6.0,10.0,90,0.00,,---,0.00,VWS V14.01,2013-02-22 10:29:00,
2013-02-22 04:34:00,13.5,11.1,30.10,NW,325,7.0,10.0,90,0.00,,---,0.00,VWS V14.01,2013-02-22 10:34:00,
2013-02-22 04:39:00,13.6,11.5,30.10,NW,309,4.0,11.0,91,0.00,,---,0.00,VWS V14.01,2013-02-22 10:39:00,
2013-02-22 04:44:00,13.9,11.8,30.10,WNW,301,6.0,11.0,91,0.00,,---,0.00,VWS V14.01,2013-02-22 10:44:00,
2013-02-22 04:49:00,13.0,10.6,30.10,West,278,5.0,11.0,90,0.00,,---,0.00,VWS V14.01,2013-02-22 10:49:00,
2013-02-22 04:54:00,13.1,11.0,30.11,NW,326,4.0,11.0,91,0.00,,---,0.00,VWS V14.01,2013-02-22 10:54:00,
2013-02-22 04:59:00,13.1,11.0,30.11,NW,326,4.0,11.0,91,0.00,,---,0.00,VWS V14.01,2013-02-22 10:59:00,
2013-02-22 05:04:00,13.1,11.0,30.12,NW,326,4.0,4.0,91,0.00,,---,0.00,VWS V14.01,2013-02-22 11:04:00,
2013-02-22 05:09:00,13.1,11.0,30.12,NW,326,4.0,4.0,91,0.00,,---,0.00,VWS V14.01,2013-02-22 11:09:00,
2013-02-22 05:14:00,13.1,11.0,30.12,NW,326,4.0,4.0,91,0.00,,---,0.00,VWS V14.01,2013-02-22 11:14:00,
2013-02-22 05:19:00,13.1,11.0,30.13,NW,326,4.0,4.0,91,0.00,,---,0.00,VWS V14.01,2013-02-22 11:19:00,
2013-02-22 05:24:00,13.1,11.0,30.12,NW,326,4.0,4.0,91,0.00,,---,0.00,VWS V14.01,2013-02-22 11:24:00,
2013-02-22 05:29:00,13.1,11.0,30.12,NW,326,4.0,4.0,91,0.00,,---,0.00,VWS V14.01,2013-02-22 11:29:00,
2013-02-22 05:34:00,13.1,11.0,30.12,NW,326,4.0,4.0,91,0.00,,---,0.00,VWS V14.01,2013-02-22 11:34:00,
2013-02-22 05:39:00,13.1,11.0,30.12,NW,326,4.0,4.0,91,0.00,,---,0.00,VWS V14.01,2013-02-22 11:39:00,
2013-02-22 05:44:00,13.1,11.0,30.11,NW,326,4.0,4.0,91,0.00,,---,0.00,VWS V14.01,2013-02-22 11:44:00,
2013-02-22 05:49:00,13.1,11.0,30.12,NW,326,4.0,4.0,91,0.00,,---,0.00,VWS V14.01,2013-02-22 11:49:00,
2013-02-22 05:54:00,13.1,11.0,30.12,NW,326,4.0,4.0,91,0.00,,---,0.00,VWS V14.01,2013-02-22 11:54:00,
2013-02-22 05:59:00,13.1,11.0,30.12,NW,326,4.0,4.0,91,0.00,,---,0.00,VWS V14.01,2013-02-22 11:59:00,
2013-02-22 06:04:00,13.1,11.0,30.12,NW,326,4.0,4.0,91,0.00,,---,0.00,VWS V14.01,2013-02-22 12:04:00,
2013-02-22 06:09:00,13.1,11.0,30.12,NW,326,4.0,4.0,91,0.00,,---,0.00,VWS V14.01,2013-02-22 12:09:00,
2013-02-22 06:14:00,13.1,11.0,30.13,NW,326,4.0,4.0,91,0.00,,---,0.00,VWS V14.01,2013-02-22 12:14:00,
2013-02-22 06:19:00,13.1,11.0,30.13,NW,326,4.0,4.0,91,0.00,,---,0.00,VWS V14.01,2013-02-22 12:19:00,
2013-02-22 06:24:00,13.1,11.0,30.13,NW,326,4.0,4.0,91,0.00,,---,0.00,VWS V14.01,2013-02-22 12:24:00,
2013-02-22 06:29:00,13.1,11.0,30.13,NW,326,4.0,4.0,91,0.00,,---,0.00,VWS V14.01,2013-02-22 12:29:00,
2013-02-22 06:34:00,13.1,11.0,30.13,NW,326,4.0,4.0,91,0.00,,---,0.00,VWS V14.01,2013-02-22 12:34:00,
2013-02-22 06:39:00,13.1,11.0,30.14,NW,326,4.0,4.0,91,0.00,,---,0.00,VWS V14.01,2013-02-22 12:39:00,
2013-02-22 06:44:00,13.1,11.0,30.14,NW,326,4.0,4.0,91,0.00,,---,0.00,VWS V14.01,2013-02-22 12:44:00,
2013-02-22 06:49:00,13.1,11.0,30.14,NW,326,4.0,4.0,91,0.00,,---,0.00,VWS V14.01,2013-02-22 12:49:00,
2013-02-22 06:54:00,13.1,11.0,30.14,NW,326,4.0,4.0,91,0.00,,---,0.00,VWS V14.01,2013-02-22 12:54:00,
2013-02-22 06:59:00,13.1,11.0,30.14,NW,326,4.0,4.0,91,0.00,,---,0.00,VWS V14.01,2013-02-22 12:59:00,
2013-02-22 07:04:00,13.1,11.0,30.14,NW,326,4.0,4.0,91,0.00,,---,0.00,VWS V14.01,2013-02-22 13:04:00,
2013-02-22 07:09:00,13.1,11.0,30.14,NW,326,4.0,4.0,91,0.00,,---,0.00,VWS V14.01,2013-02-22 13:09:00,
2013-02-22 07:14:00,13.1,11.0,30.14,NW,326,4.0,4.0,91,0.00,,---,0.00,VWS V14.01,2013-02-22 13:14:00,
2013-02-22 07:19:00,13.1,11.0,30.15,NW,326,4.0,4.0,91,0.00,,---,0.00,VWS V14.01,2013-02-22 13:19:00,
2013-02-22 07:24:00,13.1,11.0,30.16,NW,326,4.0,4.0,91,0.00,,---,0.00,VWS V14.01,2013-02-22 13:24:00,
2013-02-22 07:29:00,13.1,11.0,30.16,NW,326,4.0,4.0,91,0.00,,---,0.00,VWS V14.01,2013-02-22 13:29:00,
2013-02-22 07:34:00,13.1,11.0,30.15,NW,326,4.0,4.0,91,0.00,,---,0.00,VWS V14.01,2013-02-22 13:34:00,
2013-02-22 07:39:00,13.1,11.0,30.16,NW,326,4.0,4.0,91,0.00,,---,0.00,VWS V14.01,2013-02-22 13:39:00,
2013-02-22 07:44:00,13.1,11.0,30.16,NW,326,4.0,4.0,91,0.00,,---,0.00,VWS V14.01,2013-02-22 13:44:00,
2013-02-22 07:49:00,13.4,10.5,30.16,West,270,2.0,6.0,88,0.00,,---,0.00,VWS V14.01,2013-02-22 13:49:00,
2013-02-22 07:54:00,13.4,10.5,30.16,WNW,298,2.0,6.0,88,0.00,,---,0.00,VWS V14.01,2013-02-22 13:54:00,
2013-02-22 07:59:00,13.4,10.5,30.16,WNW,287,1.0,7.0,88,0.00,,---,0.00,VWS V14.01,2013-02-22 13:59:00,
2013-02-22 08:04:00,13.4,10.5,30.17,WNW,295,3.0,5.0,88,0.00,,---,0.00,VWS V14.01,2013-02-22 14:04:00,
2013-02-22 08:09:00,13.6,10.5,30.17,NW,304,2.0,6.0,87,0.00,,---,0.00,VWS V14.01,2013-02-22 14:09:00,
2013-02-22 08:14:00,13.8,10.6,30.18,WSW,245,1.0,6.0,87,0.00,,---,0.00,VWS V14.01,2013-02-22 14:14:00,
2013-02-22 08:19:00,13.9,10.5,30.18,West,262,0.0,1.0,86,0.00,,---,0.00,VWS V14.01,2013-02-22 14:19:00,
2013-02-22 08:24:00,13.6,10.2,30.18,WNW,290,3.0,3.0,86,0.00,,---,0.00,VWS V14.01,2013-02-22 14:24:00,
2013-02-22 08:29:00,13.5,10.1,30.18,West,263,2.0,6.0,86,0.00,,---,0.00,VWS V14.01,2013-02-22 14:29:00,
2013-02-22 08:34:00,13.6,10.2,30.18,WNW,302,5.0,7.0,86,0.00,,---,0.00,VWS V14.01,2013-02-22 14:34:00,
2013-02-22 08:39:00,14.0,10.9,30.18,WNW,290,5.0,7.0,87,0.00,,---,0.00,VWS V14.01,2013-02-22 14:39:00,
2013-02-22 08:44:00,14.4,11.2,30.19,NW,307,3.0,7.0,87,0.00,,---,0.00,VWS V14.01,2013-02-22 14:44:00,
2013-02-22 08:49:00,14.9,11.5,30.19,WSW,239,2.0,6.0,86,0.00,,---,0.00,VWS V14.01,2013-02-22 14:49:00,
2013-02-22 08:54:00,15.2,11.8,30.20,West,276,2.0,7.0,86,0.00,,---,0.00,VWS V14.01,2013-02-22 14:54:00,
2013-02-22 08:59:00,15.7,12.3,30.20,NW,318,0.0,7.0,86,0.00,,---,0.00,VWS V14.01,2013-02-22 14:59:00,
2013-02-22 09:04:00,16.0,12.3,30.20,NW,306,2.0,3.0,85,0.00,,---,0.00,VWS V14.01,2013-02-22 15:04:00,
2013-02-22 09:09:00,16.1,12.4,30.20,NW,316,0.0,8.0,85,0.00,,---,0.00,VWS V14.01,2013-02-22 15:09:00,
2013-02-22 09:14:00,16.2,12.2,30.20,WNW,302,3.0,8.0,84,0.00,,---,0.00,VWS V14.01,2013-02-22 15:14:00,
2013-02-22 09:19:00,16.4,12.7,30.21,West,276,4.0,7.0,85,0.00,,---,0.00,VWS V14.01,2013-02-22 15:19:00,
2013-02-22 09:24:00,16.5,12.5,30.21,West,278,2.0,7.0,84,0.00,,---,0.00,VWS V14.01,2013-02-22 15:24:00,
2013-02-22 09:29:00,16.8,12.8,30.21,NW,305,1.0,7.0,84,0.00,,---,0.00,VWS V14.01,2013-02-22 15:29:00,
2013-02-22 09:34:00,16.7,12.4,30.21,WNW,287,5.0,8.0,83,0.00,,---,0.00,VWS V14.01,2013-02-22 15:34:00,
2013-02-22 09:39:00,16.4,12.1,30.21,NW,311,2.0,11.0,83,0.00,,---,0.00,VWS V14.01,2013-02-22 15:39:00,
2013-02-22 09:44:00,16.4,12.4,30.21,NW,312,6.0,11.0,84,0.00,,---,0.00,VWS V14.01,2013-02-22 15:44:00,
2013-02-22 09:49:00,16.6,12.4,30.21,NW,315,6.0,7.0,83,0.00,,---,0.00,VWS V14.01,2013-02-22 15:49:00,
2013-02-22 09:54:00,16.8,12.5,30.22,NW,311,3.0,8.0,83,0.00,,---,0.00,VWS V14.01,2013-02-22 15:54:00,
2013-02-22 09:58:00,17.1,12.8,30.22,NW,316,4.0,9.0,83,0.00,,---,0.00,VWS V14.01,2013-02-22 15:58:00,
2013-02-22 10:03:00,17.5,13.2,30.23,NW,311,5.0,7.0,83,0.00,,---,0.00,VWS V14.01,2013-02-22 16:03:00,
2013-02-22 10:08:00,17.7,13.1,30.22,WNW,287,2.0,7.0,82,0.00,,---,0.00,VWS V14.01,2013-02-22 16:08:00,
2013-02-22 10:13:00,17.9,13.4,30.23,WNW,283,3.0,7.0,82,0.00,,---,0.00,VWS V14.01,2013-02-22 16:13:00,
2013-02-22 10:18:00,18.1,13.3,30.23,NW,315,1.0,6.0,81,0.00,,---,0.00,VWS V14.01,2013-02-22 16:18:00,
2013-02-22 10:23:00,18.3,13.5,30.23,West,277,3.0,7.0,81,0.00,,---,0.00,VWS V14.01,2013-02-22 16:23:00,
2013-02-22 10:28:00,18.3,13.5,30.24,WNW,301,4.0,7.0,81,0.00,,---,0.00,VWS V14.01,2013-02-22 16:28:00,
2013-02-22 10:33:00,18.6,13.8,30.24,WNW,283,5.0,6.0,81,0.00,,---,0.00,VWS V14.01,2013-02-22 16:33:00,
2013-02-22 10:38:00,18.5,13.4,30.24,WNW,282,4.0,8.0,80,0.00,,---,0.00,VWS V14.01,2013-02-22 16:38:00,
2013-02-22 10:43:00,18.6,13.5,30.24,WNW,298,2.0,8.0,80,0.00,,---,0.00,VWS V14.01,2013-02-22 16:43:00,
2013-02-22 10:48:00,18.8,13.7,30.24,SW,233,3.0,6.0,80,0.00,,---,0.00,VWS V14.01,2013-02-22 16:48:00,
2013-02-22 10:53:00,19.1,13.7,30.25,NW,311,3.0,6.0,79,0.00,,---,0.00,VWS V14.01,2013-02-22 16:53:00,
2013-02-22 10:58:00,19.3,13.9,30.25,NW,318,2.0,8.0,79,0.00,,---,0.00,VWS V14.01,2013-02-22 16:58:00,
2013-02-22 11:03:00,19.1,13.1,30.25,NW,314,7.0,10.0,77,0.00,,---,0.00,VWS V14.01,2013-02-22 17:03:00,
2013-02-22 11:08:00,19.1,13.4,30.25,WNW,301,2.0,10.0,78,0.00,,---,0.00,VWS V14.01,2013-02-22 17:08:00,
2013-02-22 11:13:00,19.6,14.2,30.25,WNW,287,5.0,10.0,79,0.00,,---,0.00,VWS V14.01,2013-02-22 17:13:00,
2013-02-22 11:18:00,19.8,13.8,30.25,NW,314,9.0,9.0,77,0.00,,---,0.00,VWS V14.01,2013-02-22 17:18:00,
2013-02-22 11:23:00,19.5,13.5,30.25,NW,319,7.0,9.0,77,0.00,,---,0.00,VWS V14.01,2013-02-22 17:23:00,
2013-02-22 11:28:00,19.6,13.3,30.25,WNW,301,8.0,9.0,76,0.00,,---,0.00,VWS V14.01,2013-02-22 17:28:00,
2013-02-22 11:33:00,19.8,13.8,30.25,NW,316,6.0,9.0,77,0.00,,---,0.00,VWS V14.01,2013-02-22 17:33:00,
2013-02-22 11:38:00,19.8,13.5,30.25,West,274,5.0,11.0,76,0.00,,---,0.00,VWS V14.01,2013-02-22 17:38:00,
2013-02-22 11:43:00,20.2,13.6,30.25,NW,309,5.0,11.0,75,0.00,,---,0.00,VWS V14.01,2013-02-22 17:43:00,
2013-02-22 11:48:00,20.4,13.8,30.25,West,271,2.0,7.0,75,0.00,,---,0.00,VWS V14.01,2013-02-22 17:48:00,
2013-02-22 11:53:00,21.0,14.3,30.25,NW,316,7.0,7.0,75,0.00,,---,0.00,VWS V14.01,2013-02-22 17:53:00,
2013-02-22 11:58:00,20.7,14.0,30.25,NW,316,5.0,8.0,75,0.00,,---,0.00,VWS V14.01,2013-02-22 17:58:00,
2013-02-22 12:03:00,21.5,15.1,30.25,WNW,294,2.0,7.0,76,0.00,,---,0.00,VWS V14.01,2013-02-22 18:03:00,
2013-02-22 12:08:00,22.0,15.3,30.25,NW,316,1.0,7.0,75,0.00,,---,0.00,VWS V14.01,2013-02-22 18:08:00,
2013-02-22 12:13:00,22.1,15.1,30.25,WNW,297,3.0,7.0,74,0.00,,---,0.00,VWS V14.01,2013-02-22 18:13:00,
2013-02-22 12:18:00,22.2,14.9,30.25,West,276,6.0,8.0,73,0.00,,---,0.00,VWS V14.01,2013-02-22 18:18:00,
2013-02-22 12:23:00,22.1,14.8,30.25,NW,311,5.0,9.0,73,0.00,,---,0.00,VWS V14.01,2013-02-22 18:23:00,
2013-02-22 12:28:00,22.4,15.4,30.25,West,274,4.0,9.0,74,0.00,,---,0.00,VWS V14.01,2013-02-22 18:28:00,
2013-02-22 12:33:00,22.5,15.5,30.25,WSW,250,6.0,7.0,74,0.00,,---,0.00,VWS V14.01,2013-02-22 18:33:00,
2013-02-22 12:38:00,22.6,15.3,30.25,WNW,293,3.0,8.0,73,0.00,,---,0.00,VWS V14.01,2013-02-22 18:38:00,
2013-02-22 12:43:00,22.6,14.9,30.25,NW,304,5.0,8.0,72,0.00,,---,0.00,VWS V14.01,2013-02-22 18:43:00,
2013-02-22 12:48:00,22.8,16.1,30.25,WNW,285,5.0,8.0,75,0.00,,---,0.00,VWS V14.01,2013-02-22 18:48:00,
2013-02-22 12:53:00,23.0,15.6,30.25,WSW,245,4.0,8.0,73,0.00,,---,0.00,VWS V14.01,2013-02-22 18:53:00,
2013-02-22 12:58:00,23.4,16.0,30.25,NW,314,4.0,8.0,73,0.00,,---,0.00,VWS V14.01,2013-02-22 18:58:00,
2013-02-22 13:03:00,23.3,15.6,30.25,West,280,4.0,9.0,72,0.00,,---,0.00,VWS V14.01,2013-02-22 19:03:00,
2013-02-22 13:08:00,23.4,16.0,30.25,WNW,295,4.0,9.0,73,0.00,,---,0.00,VWS V14.01,2013-02-22 19:08:00,
2013-02-22 13:13:00,23.7,16.3,30.25,NW,308,0.0,9.0,73,0.00,,---,0.00,VWS V14.01,2013-02-22 19:13:00,
2013-02-22 13:18:00,23.8,15.8,30.25,WNW,284,4.0,9.0,71,0.00,,---,0.00,VWS V14.01,2013-02-22 19:18:00,
2013-02-22 13:23:00,24.0,16.3,30.25,WNW,294,4.0,9.0,72,0.00,,---,0.00,VWS V14.01,2013-02-22 19:23:00,
2013-02-22 13:28:00,24.2,16.5,30.25,NW,321,3.0,9.0,72,0.00,,---,0.00,VWS V14.01,2013-02-22 19:28:00,
2013-02-22 13:33:00,24.2,15.8,30.25,West,271,1.0,7.0,70,0.00,,---,0.00,VWS V14.01,2013-02-22 19:33:00,
2013-02-22 13:38:00,24.2,16.2,30.25,West,263,2.0,8.0,71,0.00,,---,0.00,VWS V14.01,2013-02-22 19:38:00,
2013-02-22 13:43:00,24.3,15.9,30.25,WNW,302,4.0,8.0,70,0.00,,---,0.00,VWS V14.01,2013-02-22 19:43:00,
2013-02-22 13:48:00,24.6,16.5,30.25,WNW,289,3.0,8.0,71,0.00,,---,0.00,VWS V14.01,2013-02-22 19:48:00,
2013-02-22 13:53:00,24.7,16.3,30.24,West,275,9.0,9.0,70,0.00,,---,0.00,VWS V14.01,2013-02-22 19:53:00,
2013-02-22 13:58:00,24.5,16.1,30.24,West,267,8.0,9.0,70,0.00,,---,0.00,VWS V14.01,2013-02-22 19:58:00,
2013-02-22 14:03:00,24.4,16.0,30.25,West,264,4.0,9.0,70,0.00,,---,0.00,VWS V14.01,2013-02-22 20:03:00,
2013-02-22 14:08:00,24.7,16.3,30.24,WSW,255,7.0,9.0,70,0.00,,---,0.00,VWS V14.01,2013-02-22 20:08:00,
2013-02-22 14:13:00,24.7,16.0,30.24,WNW,301,5.0,9.0,69,0.00,,---,0.00,VWS V14.01,2013-02-22 20:13:00,
2013-02-22 14:18:00,24.7,16.3,30.24,WNW,285,3.0,8.0,70,0.00,,---,0.00,VWS V14.01,2013-02-22 20:18:00,
2013-02-22 14:23:00,24.8,16.4,30.24,WNW,300,6.0,8.0,70,0.00,,---,0.00,VWS V14.01,2013-02-22 20:23:00,
2013-02-22 14:28:00,25.0,16.6,30.24,NW,316,7.0,8.0,70,0.00,,---,0.00,VWS V14.01,2013-02-22 20:28:00,
2013-02-22 14:33:00,24.9,16.2,30.24,WNW,299,5.0,8.0,69,0.00,,---,0.00,VWS V14.01,2013-02-22 20:33:00,
2013-02-22 14:38:00,25.1,16.4,30.23,West,273,2.0,9.0,69,0.00,,---,0.00,VWS V14.01,2013-02-22 20:38:00,
2013-02-22 14:44:00,25.2,16.5,30.23,NW,317,7.0,9.0,69,0.00,,---,0.00,VWS V14.01,2013-02-22 20:44:00,
2013-02-22 14:48:00,25.1,16.7,30.23,NW,311,2.0,11.0,70,0.00,,---,0.00,VWS V14.01,2013-02-22 20:48:00,
2013-02-22 14:54:00,25.2,16.5,30.23,WSW,254,3.0,11.0,69,0.00,,---,0.00,VWS V14.01,2013-02-22 20:54:00,
2013-02-22 14:59:00,25.2,16.1,30.23,SW,232,6.0,11.0,68,0.00,,---,0.00,VWS V14.01,2013-02-22 20:59:00,
2013-02-22 15:04:00,25.3,16.6,30.22,West,278,3.0,7.0,69,0.00,,---,0.00,VWS V14.01,2013-02-22 21:04:00,
2013-02-22 15:09:00,25.5,16.8,30.22,WNW,301,5.0,8.0,69,0.00,,---,0.00,VWS V14.01,2013-02-22 21:09:00,
2013-02-22 15:14:00,25.5,16.4,30.22,WNW,291,4.0,8.0,68,0.00,,---,0.00,VWS V14.01,2013-02-22 21:14:00,
2013-02-22 15:19:00,25.3,16.2,30.22,NW,312,5.0,8.0,68,0.00,,---,0.00,VWS V14.01,2013-02-22 21:19:00,
2013-02-22 15:23:00,25.0,15.9,30.22,NW,316,4.0,10.0,68,0.00,,---,0.00,VWS V14.01,2013-02-22 21:23:00,
2013-02-22 15:28:00,25.3,16.6,30.22,WNW,287,5.0,10.0,69,0.00,,---,0.00,VWS V14.01,2013-02-22 21:28:00,
2013-02-22 15:34:00,25.3,16.6,30.22,WNW,298,6.0,7.0,69,0.00,,---,0.00,VWS V14.01,2013-02-22 21:34:00,
2013-02-22 15:39:00,25.9,17.5,30.22,WSW,257,6.0,10.0,70,0.00,,---,0.00,VWS V14.01,2013-02-22 21:39:00,
2013-02-22 15:44:00,25.6,16.5,30.22,NW,311,6.0,10.0,68,0.00,,---,0.00,VWS V14.01,2013-02-22 21:44:00,
2013-02-22 15:49:00,25.4,16.7,30.23,West,276,4.0,8.0,69,0.00,,---,0.00,VWS V14.01,2013-02-22 21:49:00,
2013-02-22 15:54:00,25.3,16.2,30.22,NW,307,4.0,9.0,68,0.00,,---,0.00,VWS V14.01,2013-02-22 21:54:00,
2013-02-22 15:59:00,25.2,16.5,30.22,WNW,302,7.0,9.0,69,0.00,,---,0.00,VWS V14.01,2013-02-22 21:59:00,
2013-02-22 16:04:00,25.3,16.9,30.22,West,276,7.0,10.0,70,0.00,,---,0.00,VWS V14.01,2013-02-22 22:04:00,
2013-02-22 16:09:00,25.4,17.0,30.22,NNW,340,4.0,10.0,70,0.00,,---,0.00,VWS V14.01,2013-02-22 22:09:00,
2013-02-22 16:14:00,25.4,16.7,30.22,WNW,300,6.0,10.0,69,0.00,,---,0.00,VWS V14.01,2013-02-22 22:14:00,
2013-02-22 16:19:00,25.3,16.6,30.22,NW,304,7.0,9.0,69,0.00,,---,0.00,VWS V14.01,2013-02-22 22:19:00,
2013-02-22 16:24:00,25.2,16.5,30.21,NW,311,6.0,11.0,69,0.00,,---,0.00,VWS V14.01,2013-02-22 22:24:00,
2013-02-22 16:29:00,25.3,16.6,30.21,WNW,302,5.0,11.0,69,0.00,,---,0.00,VWS V14.01,2013-02-22 22:29:00,
2013-02-22 16:34:00,25.4,16.7,30.21,WNW,295,5.0,8.0,69,0.00,,---,0.00,VWS V14.01,2013-02-22 22:34:00,
2013-02-22 16:39:00,25.6,16.9,30.21,West,277,2.0,8.0,69,0.00,,---,0.00,VWS V14.01,2013-02-22 22:39:00,
2013-02-22 16:44:00,25.8,17.0,30.22,WNW,303,4.0,8.0,69,0.00,,---,0.00,VWS V14.01,2013-02-22 22:44:00,
2013-02-22 16:49:00,25.7,16.6,30.21,NW,318,6.0,7.0,68,0.00,,---,0.00,VWS V14.01,2013-02-22 22:49:00,
2013-02-22 16:54:00,25.4,16.7,30.22,WNW,293,3.0,7.0,69,0.00,,---,0.00,VWS V14.01,2013-02-22 22:54:00,
2013-02-22 16:59:00,25.5,16.4,30.22,WNW,290,1.0,7.0,68,0.00,,---,0.00,VWS V14.01,2013-02-22 22:59:00,
2013-02-22 17:04:00,25.5,16.4,30.22,West,267,2.0,6.0,68,0.00,,---,0.00,VWS V14.01,2013-02-22 23:04:00,
2013-02-22 17:08:00,25.5,16.4,30.21,WNW,295,3.0,6.0,68,0.00,,---,0.00,VWS V14.01,2013-02-22 23:08:00,
2013-02-22 17:13:00,25.5,16.4,30.21,West,262,2.0,6.0,68,0.00,,---,0.00,VWS V14.01,2013-02-22 23:13:00,
2013-02-22 17:18:00,25.5,16.8,30.22,WNW,295,6.0,6.0,69,0.00,,---,0.00,VWS V14.01,2013-02-22 23:18:00,
2013-02-22 17:23:00,25.5,16.8,30.22,West,259,0.0,6.0,69,0.00,,---,0.00,VWS V14.01,2013-02-22 23:23:00,
2013-02-22 17:28:00,25.4,16.3,30.22,WNW,300,3.0,6.0,68,0.00,,---,0.00,VWS V14.01,2013-02-22 23:28:00,
2013-02-22 17:33:00,25.2,16.5,30.22,NW,311,0.0,3.0,69,0.00,,---,0.00,VWS V14.01,2013-02-22 23:33:00,
2013-02-22 17:38:00,25.0,16.3,30.22,WNW,297,0.0,3.0,69,0.00,,---,0.00,VWS V14.01,2013-02-22 23:38:00,
2013-02-22 17:43:00,25.1,16.7,30.22,SW,236,0.0,3.0,70,0.00,,---,0.00,VWS V14.01,2013-02-22 23:43:00,
2013-02-22 17:48:00,25.0,16.3,30.22,WNW,290,0.0,1.0,69,0.00,,---,0.00,VWS V14.01,2013-02-22 23:48:00,
2013-02-22 17:53:00,24.9,16.5,30.22,WNW,295,0.0,1.0,70,0.00,,---,0.00,VWS V14.01,2013-02-22 23:53:00,
2013-02-22 17:58:00,24.8,16.4,30.22,West,264,2.0,2.0,70,0.00,,---,0.00,VWS V14.01,2013-02-22 23:58:00,
2013-02-22 18:03:00,24.4,16.0,30.22,SSW,208,0.0,1.0,70,0.00,,---,0.00,VWS V14.01,2013-02-23 00:03:00,
2013-02-22 18:08:00,23.9,15.6,30.22,SW,225,0.0,1.0,70,0.00,,---,0.00,VWS V14.01,2013-02-23 00:08:00,
2013-02-22 18:13:00,23.4,15.4,30.22,SW,228,0.0,1.0,71,0.00,,---,0.00,VWS V14.01,2013-02-23 00:13:00,
2013-02-22 18:18:00,22.8,15.1,30.22,West,264,1.0,1.0,72,0.00,,---,0.00,VWS V14.01,2013-02-23 00:18:00,
2013-02-22 18:23:00,22.3,15.3,30.22,SW,236,0.0,1.0,74,0.00,,---,0.00,VWS V14.01,2013-02-23 00:23:00,
2013-02-22 18:28:00,22.0,15.3,30.22,WSW,248,0.0,1.0,75,0.00,,---,0.00,VWS V14.01,2013-02-23 00:28:00,
2013-02-22 18:33:00,21.6,14.9,30.22,WSW,245,0.0,1.0,75,0.00,,---,0.00,VWS V14.01,2013-02-23 00:33:00,
2013-02-22 18:38:00,21.3,14.9,30.22,SW,226,0.0,1.0,76,0.00,,---,0.00,VWS V14.01,2013-02-23 00:38:00,
2013-02-22 18:43:00,21.0,14.6,30.22,WSW,256,0.0,1.0,76,0.00,,---,0.00,VWS V14.01,2013-02-23 00:43:00,
2013-02-22 18:48:00,20.7,14.6,30.22,West,272,0.0,1.0,77,0.00,,---,0.00,VWS V14.01,2013-02-23 00:48:00,
2013-02-22 18:53:00,20.4,14.4,30.23,SW,229,0.0,1.0,77,0.00,,---,0.00,VWS V14.01,2013-02-23 00:53:00,
2013-02-22 18:58:00,20.1,14.1,30.23,WSW,241,0.0,1.0,77,0.00,,---,0.00,VWS V14.01,2013-02-23 00:58:00,
2013-02-22 19:03:00,19.8,14.1,30.23,SW,228,0.0,1.0,78,0.00,,---,0.00,VWS V14.01,2013-02-23 01:03:00,
2013-02-22 19:08:00,19.6,13.9,30.23,WSW,247,0.0,1.0,78,0.00,,---,0.00,VWS V14.01,2013-02-23 01:08:00,
2013-02-22 19:13:00,19.4,14.0,30.23,West,273,0.0,1.0,79,0.00,,---,0.00,VWS V14.01,2013-02-23 01:13:00,
2013-02-22 19:18:00,19.2,13.8,30.23,SW,226,0.0,1.0,79,0.00,,---,0.00,VWS V14.01,2013-02-23 01:18:00,
2013-02-22 19:23:00,19.0,13.6,30.24,SW,221,0.0,1.0,79,0.00,,---,0.00,VWS V14.01,2013-02-23 01:23:00,
2013-02-22 19:28:00,18.9,13.5,30.24,SW,229,0.0,1.0,79,0.00,,---,0.00,VWS V14.01,2013-02-23 01:28:00,
2013-02-22 19:33:00,18.8,13.7,30.24,West,281,0.0,1.0,80,0.00,,---,0.00,VWS V14.01,2013-02-23 01:33:00,
2013-02-22 19:38:00,18.8,13.7,30.24,WSW,245,0.0,1.0,80,0.00,,---,0.00,VWS V14.01,2013-02-23 01:38:00,
2013-02-22 19:43:00,18.6,13.5,30.24,WSW,242,0.0,1.0,80,0.00,,---,0.00,VWS V14.01,2013-02-23 01:43:00,
2013-02-22 19:48:00,18.5,13.4,30.24,WSW,249,0.0,1.0,80,0.00,,---,0.00,VWS V14.01,2013-02-23 01:48:00,
2013-02-22 19:53:00,18.3,13.2,30.24,WSW,257,0.0,1.0,80,0.00,,---,0.00,VWS V14.01,2013-02-23 01:53:00,
2013-02-22 19:58:00,18.2,13.1,30.24,WSW,257,0.0,1.0,80,0.00,,---,0.00,VWS V14.01,2013-02-23 01:58:00,
2013-02-22 20:03:00,18.1,13.3,30.24,WSW,246,0.0,1.0,81,0.00,,---,0.00,VWS V14.01,2013-02-23 02:03:00,
2013-02-22 20:08:00,17.9,13.1,30.24,SW,233,0.0,1.0,81,0.00,,---,0.00,VWS V14.01,2013-02-23 02:08:00,
2013-02-22 20:13:00,17.8,13.0,30.24,West,265,0.0,1.0,81,0.00,,---,0.00,VWS V14.01,2013-02-23 02:13:00,
2013-02-22 20:18:00,17.6,12.8,30.24,West,268,0.0,0.0,81,0.00,,---,0.00,VWS V14.01,2013-02-23 02:18:00,
2013-02-22 20:23:00,17.6,12.8,30.24,West,271,0.0,0.0,81,0.00,,---,0.00,VWS V14.01,2013-02-23 02:23:00,
2013-02-22 20:28:00,17.5,12.9,30.24,West,267,0.0,1.0,82,0.00,,---,0.00,VWS V14.01,2013-02-23 02:28:00,
2013-02-22 20:33:00,17.3,12.8,30.24,SW,232,0.0,0.0,82,0.00,,---,0.00,VWS V14.01,2013-02-23 02:33:00,
2013-02-22 20:38:00,17.1,12.6,30.24,WSW,246,0.0,1.0,82,0.00,,---,0.00,VWS V14.01,2013-02-23 02:38:00,
2013-02-22 20:43:00,16.9,12.4,30.24,West,264,0.0,1.0,82,0.00,,---,0.00,VWS V14.01,2013-02-23 02:43:00,
2013-02-22 20:48:00,16.8,12.5,30.24,SW,232,0.0,1.0,83,0.00,,---,0.00,VWS V14.01,2013-02-23 02:48:00,
2013-02-22 20:53:00,16.6,12.4,30.24,SW,236,0.0,1.0,83,0.00,,---,0.00,VWS V14.01,2013-02-23 02:53:00,
2013-02-22 20:58:00,16.4,12.1,30.24,WSW,239,0.0,1.0,83,0.00,,---,0.00,VWS V14.01,2013-02-23 02:58:00,
2013-02-22 21:03:00,16.1,11.9,30.24,SW,236,0.0,1.0,83,0.00,,---,0.00,VWS V14.01,2013-02-23 03:03:00,
2013-02-22 21:08:00,15.9,11.7,30.24,WSW,250,0.0,1.0,83,0.00,,---,0.00,VWS V14.01,2013-02-23 03:08:00,
2013-02-22 21:13:00,15.6,11.4,30.25,SW,225,0.0,1.0,83,0.00,,---,0.00,VWS V14.01,2013-02-23 03:13:00,
2013-02-22 21:18:00,15.4,11.2,30.25,SW,224,1.0,1.0,83,0.00,,---,0.00,VWS V14.01,2013-02-23 03:18:00,
2013-02-22 21:23:00,15.2,11.2,30.25,SW,225,0.0,4.0,84,0.00,,---,0.00,VWS V14.01,2013-02-23 03:23:00,
2013-02-22 21:28:00,14.9,10.9,30.25,WSW,244,0.0,4.0,84,0.00,,---,0.00,VWS V14.01,2013-02-23 03:28:00,
2013-02-22 21:33:00,14.6,10.7,30.25,SW,225,0.0,1.0,84,0.00,,---,0.00,VWS V14.01,2013-02-23 03:33:00,
2013-02-22 21:38:00,14.4,10.5,30.25,WSW,239,0.0,1.0,84,0.00,,---,0.00,VWS V14.01,2013-02-23 03:38:00,
2013-02-22 21:43:00,14.2,10.3,30.25,WSW,243,0.0,1.0,84,0.00,,---,0.00,VWS V14.01,2013-02-23 03:43:00,
2013-02-22 21:48:00,14.0,10.3,30.25,WSW,249,0.0,1.0,85,0.00,,---,0.00,VWS V14.01,2013-02-23 03:48:00,
2013-02-22 21:53:00,13.9,10.2,30.25,SW,228,0.0,1.0,85,0.00,,---,0.00,VWS V14.01,2013-02-23 03:53:00,
2013-02-22 21:58:00,13.8,10.1,30.25,SW,228,0.0,1.0,85,0.00,,---,0.00,VWS V14.01,2013-02-23 03:58:00,
2013-02-22 22:03:00,13.7,10.0,30.25,West,262,0.0,1.0,85,0.00,,---,0.00,VWS V14.01,2013-02-23 04:03:00,
2013-02-22 22:08:00,13.6,9.9,30.25,West,260,0.0,1.0,85,0.00,,---,0.00,VWS V14.01,2013-02-23 04:08:00,
2013-02-22 22:13:00,13.6,9.9,30.25,West,266,0.0,1.0,85,0.00,,---,0.00,VWS V14.01,2013-02-23 04:13:00,
2013-02-22 22:18:00,13.4,9.7,30.25,WSW,248,0.0,1.0,85,0.00,,---,0.00,VWS V14.01,2013-02-23 04:18:00,
2013-02-22 22:23:00,13.1,9.4,30.25,West,266,0.0,1.0,85,0.00,,---,0.00,VWS V14.01,2013-02-23 04:23:00,
2013-02-22 22:28:00,12.9,9.2,30.24,SW,225,0.0,1.0,85,0.00,,---,0.00,VWS V14.01,2013-02-23 04:28:00,
2013-02-22 22:33:00,12.6,9.0,30.25,WSW,242,0.0,1.0,85,0.00,,---,0.00,VWS V14.01,2013-02-23 04:33:00,
2013-02-22 22:38:00,12.6,9.2,30.24,SW,217,0.0,1.0,86,0.00,,---,0.00,VWS V14.01,2013-02-23 04:38:00,
2013-02-22 22:43:00,12.6,9.2,30.24,WSW,238,0.0,1.0,86,0.00,,---,0.00,VWS V14.01,2013-02-23 04:43:00,
2013-02-22 22:48:00,12.6,9.2,30.24,SW,229,0.0,0.0,86,0.00,,---,0.00,VWS V14.01,2013-02-23 04:48:00,
2013-02-22 22:52:00,12.6,9.5,30.24,WSW,245,0.0,1.0,87,0.00,,---,0.00,VWS V14.01,2013-02-23 04:52:00,
2013-02-22 22:57:00,12.7,9.6,30.24,WSW,250,0.0,1.0,87,0.00,,---,0.00,VWS V14.01,2013-02-23 04:57:00,
2013-02-22 23:00:00,12.7,9.6,30.24,WSW,246,0.0,1.0,87,0.00,,---,0.00,VWS V14.01,2013-02-23 05:00:00,
2013-02-22 23:05:00,12.8,9.7,30.24,SW,236,0.0,1.0,87,0.00,,---,0.00,VWS V14.01,2013-02-23 05:05:00,
2013-02-22 23:08:00,12.7,9.6,30.24,SW,226,0.0,1.0,87,0.00,,---,0.00,VWS V14.01,2013-02-23 05:08:00,
2013-02-22 23:13:00,12.8,9.7,30.24,WSW,249,0.0,1.0,87,0.00,,---,0.00,VWS V14.01,2013-02-23 05:13:00,
2013-02-22 23:18:00,12.8,9.7,30.24,WSW,255,0.0,1.0,87,0.00,,---,0.00,VWS V14.01,2013-02-23 05:18:00,
2013-02-22 23:23:00,12.8,9.7,30.24,WSW,239,0.0,1.0,87,0.00,,---,0.00,VWS V14.01,2013-02-23 05:23:00,
2013-02-22 23:28:00,12.9,9.8,30.24,WSW,248,0.0,1.0,87,0.00,,---,0.00,VWS V14.01,2013-02-23 05:28:00,
2013-02-22 23:33:00,12.9,9.8,30.24,SW,235,0.0,1.0,87,0.00,,---,0.00,VWS V14.01,2013-02-23 05:33:00,
2013-02-22 23:38:00,12.9,9.8,30.24,WSW,239,0.0,1.0,87,0.00,,---,0.00,VWS V14.01,2013-02-23 05:38:00,
2013-02-22 23:43:00,13.0,9.9,30.24,SW,219,0.0,1.0,87,0.00,,---,0.00,VWS V14.01,2013-02-23 05:43:00,
2013-02-22 23:48:00,13.0,9.9,30.24,WSW,246,0.0,1.0,87,0.00,,---,0.00,VWS V14.01,2013-02-23 05:48:00,
2013-02-22 23:53:00,13.0,9.9,30.24,SW,225,0.0,1.0,87,0.00,,---,0.00,VWS V14.01,2013-02-23 05:53:00,
2013-02-22 23:58:00,13.1,10.0,30.24,WSW,245,0.0,1.0,87,0.00,,---,0.00,VWS V14.01,2013-02-23 05:58:00,